Private Wetterstation Sandau
Wetterdaten: Samstag, 01.12.2012
Datum Zeit Temp. A. Feuchte A. Luftdruck Regen Wind Richtung Richtung Taupunkt Windchill
01.12.2012 00:01 -1,4 C 89 % 1011,5 hPa 0,0 l/m 2,9 km/h (1 Bft) S-SW 202 -3,0 C -1,4 C
01.12.2012 00:06 -1,4 C 89 % 1011,6 hPa 0,0 l/m 1,8 km/h (1 Bft) S-SW 202 -3,0 C -1,4 C
01.12.2012 00:11 -1,3 C 89 % 1011,5 hPa 0,0 l/m 1,8 km/h (1 Bft) S 180 -2,9 C -1,3 C
01.12.2012 00:16 -1,2 C 89 % 1011,7 hPa 0,0 l/m 3,6 km/h (1 Bft) W-SW 247 -2,8 C -1,2 C
01.12.2012 00:21 -1,1 C 89 % 1011,6 hPa 0,0 l/m 0,0 km/h (0 Bft) S 180 -2,7 C -1,1 C
01.12.2012 00:26 -1,1 C 89 % 1011,5 hPa 0,0 l/m 1,8 km/h (1 Bft) S-SW 202 -2,7 C -1,1 C
01.12.2012 00:31 -1,0 C 89 % 1011,7 hPa 0,0 l/m 0,0 km/h (0 Bft) SW 225 -2,6 C -1,0 C
01.12.2012 00:36 -0,9 C 89 % 1011,6 hPa 0,0 l/m 4,3 km/h (1 Bft) SW 225 -2,5 C -0,9 C
01.12.2012 00:41 -0,8 C 89 % 1011,7 hPa 0,0 l/m 0,0 km/h (0 Bft) W-SW 247 -2,4 C -0,8 C
01.12.2012 00:46 -0,7 C 89 % 1011,6 hPa 0,0 l/m 2,2 km/h (1 Bft) S-SW 202 -2,3 C -0,7 C
01.12.2012 00:51 -0,8 C 89 % 1011,5 hPa 0,0 l/m 1,1 km/h (1 Bft) S 180 -2,4 C -0,8 C
01.12.2012 00:56 -0,8 C 89 % 1011,7 hPa 0,0 l/m 0,0 km/h (0 Bft) S 180 -2,4 C -0,8 C
01.12.2012 01:01 -0,9 C 89 % 1011,7 hPa 0,0 l/m 0,0 km/h (0 Bft) S 180 -2,5 C -0,9 C
01.12.2012 01:06 -1,0 C 89 % 1011,7 hPa 0,0 l/m 0,0 km/h (0 Bft) SW 225 -2,6 C -1,0 C
01.12.2012 01:11 -1,1 C 89 % 1011,7 hPa 0,0 l/m 0,0 km/h (0 Bft) S-SW 202 -2,7 C -1,1 C
01.12.2012 01:16 -1,1 C 89 % 1011,7 hPa 0,0 l/m 0,0 km/h (0 Bft) S-SW 202 -2,7 C -1,1 C
01.12.2012 01:21 -1,1 C 89 % 1011,4 hPa 0,0 l/m 0,0 km/h (0 Bft) S-SO 157 -2,7 C -1,1 C
01.12.2012 01:26 -1,1 C 89 % 1011,6 hPa 0,0 l/m 0,0 km/h (0 Bft) S-SW 202 -2,7 C -1,1 C
01.12.2012 01:31 -1,2 C 89 % 1011,6 hPa 0,0 l/m 1,1 km/h (1 Bft) S-SW 202 -2,8 C -1,2 C
01.12.2012 01:36 -1,3 C 89 % 1011,5 hPa 0,0 l/m 0,0 km/h (0 Bft) S-SW 202 -2,9 C -1,3 C
01.12.2012 01:41 -1,3 C 89 % 1011,5 hPa 0,0 l/m 0,0 km/h (0 Bft) S-SW 202 -2,9 C -1,3 C
01.12.2012 01:46 -1,3 C 89 % 1011,6 hPa 0,0 l/m 0,0 km/h (0 Bft) S-SW 202 -2,9 C -1,3 C
01.12.2012 01:51 -1,2 C 89 % 1011,5 hPa 0,0 l/m 1,4 km/h (1 Bft) S-SW 202 -2,8 C -1,2 C
01.12.2012 01:56 -1,2 C 89 % 1011,3 hPa 0,0 l/m 0,0 km/h (0 Bft) S-SW 202 -2,8 C -1,2 C
01.12.2012 02:01 -1,2 C 89 % 1011,3 hPa 0,0 l/m 0,0 km/h (0 Bft) S-SW 202 -2,8 C -1,2 C
01.12.2012 02:06 -1,2 C 89 % 1011,3 hPa 0,0 l/m 1,1 km/h (1 Bft) SW 225 -2,8 C -1,2 C
01.12.2012 02:11 -1,2 C 89 % 1011,4 hPa 0,0 l/m 2,5 km/h (1 Bft) W-SW 247 -2,8 C -1,2 C
01.12.2012 02:16 -1,2 C 90 % 1011,4 hPa 0,0 l/m 4,0 km/h (1 Bft) SW 225 -2,6 C -1,2 C
01.12.2012 02:21 -1,1 C 90 % 1011,3 hPa 0,0 l/m 4,7 km/h (1 Bft) SW 225 -2,5 C -2,7 C
01.12.2012 02:26 -1,1 C 90 % 1011,4 hPa 0,0 l/m 3,2 km/h (1 Bft) S-SW 202 -2,5 C -1,1 C
01.12.2012 02:31 -1,1 C 90 % 1011,4 hPa 0,0 l/m 1,8 km/h (1 Bft) S 180 -2,5 C -1,1 C
01.12.2012 02:36 -1,0 C 90 % 1011,6 hPa 0,0 l/m 1,4 km/h (1 Bft) S 180 -2,4 C -1,0 C
01.12.2012 02:41 -0,9 C 90 % 1011,4 hPa 0,0 l/m 0,0 km/h (0 Bft) S 180 -2,3 C -0,9 C
01.12.2012 02:46 -0,9 C 90 % 1011,5 hPa 0,0 l/m 2,5 km/h (1 Bft) S 180 -2,3 C -0,9 C
01.12.2012 02:51 -0,8 C 90 % 1011,5 hPa 0,0 l/m 1,8 km/h (1 Bft) S 180 -2,2 C -0,8 C
01.12.2012 02:56 -0,8 C 90 % 1011,5 hPa 0,0 l/m 3,2 km/h (1 Bft) S 180 -2,2 C -0,8 C
01.12.2012 03:01 -0,7 C 90 % 1011,5 hPa 0,0 l/m 6,1 km/h (2 Bft) SW 225 -2,1 C -2,9 C
01.12.2012 03:06 -0,7 C 90 % 1011,5 hPa 0,0 l/m 4,3 km/h (1 Bft) S-SW 202 -2,1 C -0,7 C
01.12.2012 03:11 -0,6 C 90 % 1011,5 hPa 0,0 l/m 2,9 km/h (1 Bft) S 180 -2,0 C -0,6 C
01.12.2012 03:16 -0,6 C 90 % 1011,6 hPa 0,0 l/m 5,4 km/h (1 Bft) S 180 -2,0 C -2,5 C
01.12.2012 03:21 -0,5 C 90 % 1011,7 hPa 0,0 l/m 4,3 km/h (1 Bft) S-SW 202 -1,9 C -0,5 C
01.12.2012 03:26 -0,5 C 90 % 1011,7 hPa 0,0 l/m 2,2 km/h (1 Bft) S-SW 202 -1,9 C -0,5 C
01.12.2012 03:31 -0,4 C 90 % 1011,5 hPa 0,0 l/m 2,5 km/h (1 Bft) S 180 -1,8 C -0,4 C
01.12.2012 03:36 -0,4 C 90 % 1011,6 hPa 0,0 l/m 1,4 km/h (1 Bft) S 180 -1,8 C -0,4 C
01.12.2012 03:41 -0,4 C 90 % 1011,6 hPa 0,0 l/m 0,0 km/h (0 Bft) S 180 -1,8 C -0,4 C
01.12.2012 03:46 -0,2 C 90 % 1011,6 hPa 0,0 l/m 3,2 km/h (1 Bft) S-SW 202 -1,6 C -0,2 C
01.12.2012 03:51 -0,2 C 90 % 1011,6 hPa 0,0 l/m 3,2 km/h (1 Bft) W-SW 247 -1,6 C -0,2 C
01.12.2012 03:56 -0,2 C 90 % 1011,6 hPa 0,0 l/m 5,0 km/h (1 Bft) SW 225 -1,6 C -1,8 C
01.12.2012 04:01 -0,2 C 90 % 1011,5 hPa 0,0 l/m 3,6 km/h (1 Bft) S-SW 202 -1,6 C -0,2 C
01.12.2012 04:06 -0,1 C 90 % 1011,6 hPa 0,0 l/m 5,0 km/h (1 Bft) S-SW 202 -1,5 C -1,7 C
01.12.2012 04:11 -0,1 C 90 % 1011,6 hPa 0,0 l/m 4,7 km/h (1 Bft) S-SW 202 -1,5 C -1,6 C
01.12.2012 04:16 -0,1 C 90 % 1011,7 hPa 0,0 l/m 3,6 km/h (1 Bft) S 180 -1,5 C -0,1 C
01.12.2012 04:21 0,0 C 90 % 1011,7 hPa 0,0 l/m 1,4 km/h (1 Bft) S 180 -1,4 C 0,0 C
01.12.2012 04:26 0,1 C 90 % 1011,4 hPa 0,0 l/m 0,0 km/h (0 Bft) S-SO 157 -1,3 C 0,1 C
01.12.2012 04:31 0,1 C 90 % 1011,4 hPa 0,0 l/m 0,0 km/h (0 Bft) S-SO 157 -1,3 C 0,1 C
01.12.2012 04:36 0,1 C 90 % 1011,5 hPa 0,0 l/m 1,4 km/h (1 Bft) S-SW 202 -1,3 C 0,1 C
01.12.2012 04:41 0,1 C 90 % 1011,5 hPa 0,0 l/m 2,9 km/h (1 Bft) S-SO 157 -1,3 C 0,1 C
01.12.2012 04:46 0,1 C 90 % 1011,6 hPa 0,0 l/m 0,0 km/h (0 Bft) S-SW 202 -1,3 C 0,1 C
01.12.2012 04:51 0,1 C 90 % 1011,5 hPa 0,0 l/m 5,0 km/h (1 Bft) S-SW 202 -1,3 C -1,5 C
01.12.2012 04:56 0,0 C 90 % 1011,4 hPa 0,0 l/m 0,0 km/h (0 Bft) S 180 -1,4 C 0,0 C
01.12.2012 05:01 0,1 C 90 % 1011,3 hPa 0,0 l/m 2,5 km/h (1 Bft) S-SW 202 -1,3 C 0,1 C
01.12.2012 05:06 0,1 C 90 % 1011,2 hPa 0,0 l/m 3,6 km/h (1 Bft) S-SW 202 -1,3 C 0,1 C
01.12.2012 05:11 0,0 C 90 % 1011,2 hPa 0,0 l/m 4,0 km/h (1 Bft) S-SO 157 -1,4 C 0,0 C
01.12.2012 05:16 0,1 C 90 % 1011,3 hPa 0,0 l/m 1,8 km/h (1 Bft) S 180 -1,3 C 0,1 C
01.12.2012 05:21 0,1 C 90 % 1011,3 hPa 0,0 l/m 1,8 km/h (1 Bft) SW 225 -1,3 C 0,1 C
01.12.2012 05:26 0,1 C 90 % 1011,3 hPa 0,0 l/m 1,4 km/h (1 Bft) S-SW 202 -1,3 C 0,1 C
01.12.2012 05:31 0,1 C 91 % 1011,3 hPa 0,0 l/m 2,2 km/h (1 Bft) S 180 -1,2 C 0,1 C
01.12.2012 05:36 0,1 C 91 % 1011,5 hPa 0,0 l/m 2,5 km/h (1 Bft) S 180 -1,2 C 0,1 C
01.12.2012 05:41 0,1 C 91 % 1011,3 hPa 0,0 l/m 4,3 km/h (1 Bft) SW 225 -1,2 C 0,1 C
01.12.2012 05:46 0,1 C 91 % 1011,1 hPa 0,0 l/m 0,0 km/h (0 Bft) S-SW 202 -1,2 C 0,1 C
01.12.2012 05:51 0,1 C 91 % 1011,1 hPa 0,0 l/m 1,4 km/h (1 Bft) S-SW 202 -1,2 C 0,1 C
01.12.2012 05:56 0,1 C 91 % 1011,2 hPa 0,0 l/m 4,0 km/h (1 Bft) S-SW 202 -1,2 C 0,1 C
01.12.2012 06:01 0,1 C 91 % 1011,2 hPa 0,0 l/m 1,8 km/h (1 Bft) S-SO 157 -1,2 C 0,1 C
01.12.2012 06:06 0,1 C 91 % 1011,0 hPa 0,0 l/m 1,4 km/h (1 Bft) S-SO 157 -1,2 C 0,1 C
01.12.2012 06:11 0,1 C 91 % 1011,1 hPa 0,0 l/m 2,2 km/h (1 Bft) S 180 -1,2 C 0,1 C
01.12.2012 06:16 0,1 C 91 % 1011,1 hPa 0,0 l/m 0,0 km/h (0 Bft) S-SO 157 -1,2 C 0,1 C
01.12.2012 06:21 0,1 C 91 % 1011,1 hPa 0,0 l/m 2,9 km/h (1 Bft) S-SW 202 -1,2 C 0,1 C
01.12.2012 06:26 0,1 C 91 % 1011,1 hPa 0,0 l/m 4,7 km/h (1 Bft) S-SW 202 -1,2 C -1,3 C
01.12.2012 06:31 0,1 C 91 % 1011,1 hPa 0,0 l/m 4,0 km/h (1 Bft) SW 225 -1,2 C 0,1 C
01.12.2012 06:36 0,1 C 91 % 1011,1 hPa 0,0 l/m 6,1 km/h (2 Bft) SW 225 -1,2 C -1,9 C
01.12.2012 06:41 0,1 C 91 % 1011,1 hPa 0,0 l/m 4,7 km/h (1 Bft) SW 225 -1,2 C -1,3 C
01.12.2012 06:46 0,2 C 92 % 1011,1 hPa 0,0 l/m 0,0 km/h (0 Bft) SW 225 -0,9 C 0,2 C
01.12.2012 06:51 0,2 C 92 % 1011,1 hPa 0,0 l/m 4,7 km/h (1 Bft) S-SW 202 -0,9 C -1,2 C
01.12.2012 06:56 0,2 C 92 % 1011,1 hPa 0,0 l/m 1,4 km/h (1 Bft) S-SW 202 -0,9 C 0,2 C
01.12.2012 07:01 0,2 C 92 % 1011,3 hPa 0,0 l/m 3,2 km/h (1 Bft) S 180 -0,9 C 0,2 C
01.12.2012 07:06 0,2 C 92 % 1011,1 hPa 0,0 l/m 4,0 km/h (1 Bft) S-SW 202 -0,9 C 0,2 C
01.12.2012 07:11 0,2 C 92 % 1011,0 hPa 0,0 l/m 2,9 km/h (1 Bft) W-SW 247 -0,9 C 0,2 C
01.12.2012 07:16 0,2 C 92 % 1011,0 hPa 0,0 l/m 1,8 km/h (1 Bft) S 180 -0,9 C 0,2 C
01.12.2012 07:21 0,3 C 92 % 1011,0 hPa 0,0 l/m 1,4 km/h (1 Bft) S 180 -0,8 C 0,3 C
01.12.2012 07:26 0,3 C 92 % 1011,0 hPa 0,0 l/m 0,0 km/h (0 Bft) W-SW 247 -0,8 C 0,3 C
01.12.2012 07:31 0,3 C 92 % 1011,0 hPa 0,0 l/m 4,0 km/h (1 Bft) S 180 -0,8 C 0,3 C
01.12.2012 07:36 0,3 C 92 % 1011,0 hPa 0,0 l/m 2,9 km/h (1 Bft) S-SW 202 -0,8 C 0,3 C
01.12.2012 07:41 0,3 C 92 % 1010,9 hPa 0,0 l/m 2,2 km/h (1 Bft) S-SW 202 -0,8 C 0,3 C
01.12.2012 07:46 0,3 C 92 % 1011,0 hPa 0,0 l/m 4,0 km/h (1 Bft) S 180 -0,8 C 0,3 C
01.12.2012 07:51 0,3 C 91 % 1011,0 hPa 0,0 l/m 2,5 km/h (1 Bft) S-SW 202 -1,0 C 0,3 C
01.12.2012 07:56 0,4 C 91 % 1011,2 hPa 0,0 l/m 2,2 km/h (1 Bft) S-SW 202 -0,9 C 0,4 C
01.12.2012 08:01 0,4 C 91 % 1011,1 hPa 0,0 l/m 2,9 km/h (1 Bft) S-SW 202 -0,9 C 0,4 C
01.12.2012 08:06 0,4 C 91 % 1011,2 hPa 0,0 l/m 3,2 km/h (1 Bft) S-SW 202 -0,9 C 0,4 C
01.12.2012 08:11 0,4 C 91 % 1011,2 hPa 0,0 l/m 2,5 km/h (1 Bft) S 180 -0,9 C 0,4 C
01.12.2012 08:16 0,4 C 91 % 1011,1 hPa 0,0 l/m 4,0 km/h (1 Bft) S 180 -0,9 C 0,4 C
01.12.2012 08:21 0,5 C 91 % 1011,5 hPa 0,0 l/m 2,5 km/h (1 Bft) S 180 -0,8 C 0,5 C
01.12.2012 08:26 0,5 C 91 % 1011,4 hPa 0,0 l/m 4,3 km/h (1 Bft) SW 225 -0,8 C 0,5 C
01.12.2012 08:31 0,5 C 91 % 1011,5 hPa 0,0 l/m 2,9 km/h (1 Bft) SW 225 -0,8 C 0,5 C
01.12.2012 08:36 0,5 C 91 % 1011,5 hPa 0,0 l/m 3,6 km/h (1 Bft) S 180 -0,8 C 0,5 C
01.12.2012 08:41 0,6 C 91 % 1011,7 hPa 0,0 l/m 7,6 km/h (2 Bft) W-SW 247 -0,7 C -1,9 C
01.12.2012 08:46 0,7 C 91 % 1011,8 hPa 0,0 l/m 4,0 km/h (1 Bft) SW 225 -0,6 C 0,7 C
01.12.2012 08:51 0,8 C 91 % 1011,7 hPa 0,0 l/m 2,9 km/h (1 Bft) SW 225 -0,5 C 0,8 C
01.12.2012 08:56 0,8 C 91 % 1011,8 hPa 0,0 l/m 6,5 km/h (2 Bft) W-SW 247 -0,5 C -1,3 C
01.12.2012 09:01 0,9 C 91 % 1011,7 hPa 0,0 l/m 6,8 km/h (2 Bft) S-SW 202 -0,4 C -1,3 C
01.12.2012 09:06 0,9 C 91 % 1011,7 hPa 0,0 l/m 2,2 km/h (1 Bft) S-SW 202 -0,4 C 0,9 C
01.12.2012 09:11 0,9 C 90 % 1011,7 hPa 0,0 l/m 4,0 km/h (1 Bft) S-SW 202 -0,6 C 0,9 C
01.12.2012 09:16 1,1 C 90 % 1011,9 hPa 0,0 l/m 7,6 km/h (2 Bft) S 180 -0,4 C -1,3 C
01.12.2012 09:21 1,1 C 90 % 1011,8 hPa 0,0 l/m 5,0 km/h (1 Bft) S 180 -0,4 C -0,3 C
01.12.2012 09:26 1,1 C 90 % 1011,9 hPa 0,0 l/m 3,2 km/h (1 Bft) S 180 -0,4 C 1,1 C
01.12.2012 09:31 1,2 C 90 % 1011,7 hPa 0,0 l/m 3,2 km/h (1 Bft) S 180 -0,3 C 1,2 C
01.12.2012 09:36 1,2 C 90 % 1011,7 hPa 0,0 l/m 4,7 km/h (1 Bft) SW 225 -0,3 C -0,1 C
01.12.2012 09:41 1,3 C 90 % 1011,7 hPa 0,0 l/m 8,6 km/h (2 Bft) S-SW 202 -0,2 C -1,4 C
01.12.2012 09:46 1,3 C 90 % 1011,8 hPa 0,0 l/m 6,1 km/h (2 Bft) SW 225 -0,2 C -0,6 C
01.12.2012 09:51 1,3 C 90 % 1011,8 hPa 0,0 l/m 2,5 km/h (1 Bft) S-SW 202 -0,2 C 1,3 C
01.12.2012 09:56 1,3 C 90 % 1011,9 hPa 0,0 l/m 4,0 km/h (1 Bft) S-SW 202 -0,2 C 1,3 C
01.12.2012 10:01 1,3 C 90 % 1011,8 hPa 0,0 l/m 5,8 km/h (2 Bft) SW 225 -0,2 C -0,5 C
01.12.2012 10:06 1,3 C 90 % 1011,9 hPa 0,0 l/m 5,8 km/h (2 Bft) SW 225 -0,2 C -0,5 C
01.12.2012 10:11 1,3 C 90 % 1011,8 hPa 0,0 l/m 9,7 km/h (2 Bft) W-SW 247 -0,2 C -1,7 C
01.12.2012 10:16 1,3 C 90 % 1011,9 hPa 0,0 l/m 5,0 km/h (1 Bft) SW 225 -0,2 C -0,1 C
01.12.2012 10:21 1,4 C 90 % 1012,0 hPa 0,0 l/m 9,7 km/h (2 Bft) W-SW 247 -0,1 C -1,6 C
01.12.2012 10:26 1,4 C 90 % 1012,0 hPa 0,0 l/m 7,2 km/h (2 Bft) W 270 -0,1 C -0,8 C
01.12.2012 10:31 1,4 C 89 % 1012,0 hPa 0,0 l/m 3,2 km/h (1 Bft) SW 225 -0,2 C 1,4 C
01.12.2012 10:36 1,5 C 89 % 1012,1 hPa 0,0 l/m 7,2 km/h (2 Bft) S-SW 202 -0,1 C -0,7 C
01.12.2012 10:41 1,6 C 89 % 1012,0 hPa 0,0 l/m 5,4 km/h (1 Bft) S-SW 202 -0,0 C 0,1 C
01.12.2012 10:46 1,6 C 89 % 1012,1 hPa 0,0 l/m 9,7 km/h (2 Bft) SW 225 -0,0 C -1,3 C
01.12.2012 10:51 1,6 C 89 % 1012,1 hPa 0,0 l/m 7,6 km/h (2 Bft) W-SW 247 -0,0 C -0,7 C
01.12.2012 10:56 1,8 C 89 % 1012,1 hPa 0,0 l/m 7,6 km/h (2 Bft) W-SW 247 0,2 C -0,5 C
01.12.2012 11:01 1,8 C 89 % 1012,1 hPa 0,0 l/m 10,8 km/h (2 Bft) W-SW 247 0,2 C -1,4 C
01.12.2012 11:06 1,8 C 89 % 1012,1 hPa 0,0 l/m 4,0 km/h (1 Bft) SW 225 0,2 C 1,8 C
01.12.2012 11:11 1,8 C 89 % 1012,0 hPa 0,0 l/m 11,9 km/h (2 Bft) W-SW 247 0,2 C -1,6 C
01.12.2012 11:16 1,8 C 88 % 1012,1 hPa 0,0 l/m 11,2 km/h (2 Bft) SW 225 0,0 C -1,4 C
01.12.2012 11:21 1,9 C 88 % 1012,2 hPa 0,0 l/m 8,3 km/h (2 Bft) S 180 0,1 C -0,6 C
01.12.2012 11:26 1,9 C 88 % 1012,1 hPa 0,0 l/m 8,6 km/h (2 Bft) W 270 0,1 C -0,7 C
01.12.2012 11:31 1,9 C 88 % 1012,1 hPa 0,5 l/m 4,7 km/h (1 Bft) SW 225 0,1 C 0,7 C
01.12.2012 11:36 1,9 C 88 % 1012,1 hPa 0,0 l/m 11,2 km/h (2 Bft) SW 225 0,1 C -1,3 C
01.12.2012 11:41 1,9 C 88 % 1012,1 hPa 0,0 l/m 9,7 km/h (2 Bft) SW 225 0,1 C -1,0 C
01.12.2012 11:46 1,9 C 88 % 1012,0 hPa 0,0 l/m 10,8 km/h (2 Bft) SW 225 0,1 C -1,2 C
01.12.2012 11:51 1,9 C 88 % 1012,0 hPa 0,0 l/m 3,2 km/h (1 Bft) S-SW 202 0,1 C 1,9 C
01.12.2012 11:56 1,9 C 88 % 1012,1 hPa 0,0 l/m 2,5 km/h (1 Bft) S 180 0,1 C 1,9 C
01.12.2012 12:01 1,9 C 88 % 1012,2 hPa 0,0 l/m 6,5 km/h (2 Bft) SW 225 0,1 C -0,0 C
01.12.2012 12:06 2,0 C 88 % 1012,0 hPa 0,0 l/m 2,2 km/h (1 Bft) SW 225 0,2 C 2,0 C
01.12.2012 12:11 2,1 C 88 % 1012,1 hPa 0,0 l/m 2,2 km/h (1 Bft) S-SW 202 0,3 C 2,1 C
01.12.2012 12:16 2,1 C 88 % 1012,1 hPa 0,0 l/m 3,2 km/h (1 Bft) SW 225 0,3 C 2,1 C
01.12.2012 12:21 2,2 C 88 % 1012,1 hPa 0,0 l/m 4,3 km/h (1 Bft) SW 225 0,4 C 2,2 C
01.12.2012 12:26 2,2 C 88 % 1012,0 hPa 0,0 l/m 8,3 km/h (2 Bft) W-SW 247 0,4 C -0,2 C
01.12.2012 12:31 2,2 C 88 % 1012,1 hPa 0,0 l/m 3,2 km/h (1 Bft) S-SW 202 0,4 C 2,2 C
01.12.2012 12:36 2,2 C 88 % 1012,1 hPa 0,0 l/m 6,1 km/h (2 Bft) SW 225 0,4 C 0,5 C
01.12.2012 12:41 2,2 C 88 % 1012,0 hPa 0,0 l/m 4,3 km/h (1 Bft) S-SW 202 0,4 C 2,2 C
01.12.2012 12:46 2,3 C 88 % 1012,1 hPa 0,0 l/m 4,3 km/h (1 Bft) SW 225 0,5 C 2,3 C
01.12.2012 12:51 2,3 C 88 % 1011,8 hPa 0,0 l/m 7,6 km/h (2 Bft) SW 225 0,5 C 0,1 C
01.12.2012 12:56 2,3 C 88 % 1011,9 hPa 0,0 l/m 7,9 km/h (2 Bft) SW 225 0,5 C -0,0 C
01.12.2012 13:01 2,4 C 88 % 1011,9 hPa 0,0 l/m 7,2 km/h (2 Bft) W-SW 247 0,6 C 0,3 C
01.12.2012 13:06 2,4 C 88 % 1011,8 hPa 0,0 l/m 13,0 km/h (3 Bft) W 270 0,6 C -1,1 C
01.12.2012 13:11 2,4 C 88 % 1012,0 hPa 0,0 l/m 5,0 km/h (1 Bft) W-SW 247 0,6 C 1,1 C
01.12.2012 13:16 2,4 C 88 % 1012,0 hPa 0,0 l/m 5,0 km/h (1 Bft) SW 225 0,6 C 1,1 C
01.12.2012 13:21 2,4 C 88 % 1011,8 hPa 0,0 l/m 6,1 km/h (2 Bft) SW 225 0,6 C 0,7 C
01.12.2012 13:26 2,4 C 88 % 1012,0 hPa 0,0 l/m 8,3 km/h (2 Bft) W-SW 247 0,6 C -0,0 C
01.12.2012 13:31 2,4 C 88 % 1011,9 hPa 0,0 l/m 4,7 km/h (1 Bft) S-SW 202 0,6 C 1,3 C
01.12.2012 13:36 2,4 C 88 % 1011,8 hPa 0,0 l/m 4,0 km/h (1 Bft) S-SW 202 0,6 C 2,4 C
01.12.2012 13:41 2,4 C 88 % 1011,8 hPa 0,0 l/m 8,6 km/h (2 Bft) W-SW 247 0,6 C -0,1 C
01.12.2012 13:46 2,4 C 88 % 1012,0 hPa 0,0 l/m 11,2 km/h (2 Bft) SW 225 0,6 C -0,7 C
01.12.2012 13:51 2,4 C 88 % 1011,9 hPa 0,0 l/m 3,2 km/h (1 Bft) S-SW 202 0,6 C 2,4 C
01.12.2012 13:56 2,4 C 88 % 1011,8 hPa 0,0 l/m 5,0 km/h (1 Bft) S-SW 202 0,6 C 1,1 C
01.12.2012 14:01 2,4 C 88 % 1011,9 hPa 0,0 l/m 6,5 km/h (2 Bft) SW 225 0,6 C 0,6 C
01.12.2012 14:06 2,4 C 88 % 1012,0 hPa 0,0 l/m 4,0 km/h (1 Bft) SW 225 0,6 C 2,4 C
01.12.2012 14:11 2,5 C 88 % 1012,0 hPa 0,0 l/m 5,4 km/h (1 Bft) S-SW 202 0,7 C 1,1 C
01.12.2012 14:16 2,5 C 88 % 1012,0 hPa 0,0 l/m 4,7 km/h (1 Bft) W-SW 247 0,7 C 1,4 C
01.12.2012 14:21 2,5 C 88 % 1012,0 hPa 0,0 l/m 5,8 km/h (2 Bft) SW 225 0,7 C 0,9 C
01.12.2012 14:26 2,5 C 89 % 1012,0 hPa 0,0 l/m 3,2 km/h (1 Bft) W-SW 247 0,9 C 2,5 C
01.12.2012 14:31 2,5 C 89 % 1012,1 hPa 0,0 l/m 4,3 km/h (1 Bft) SW 225 0,9 C 2,5 C
01.12.2012 14:36 2,5 C 89 % 1011,9 hPa 0,0 l/m 7,6 km/h (2 Bft) W-SW 247 0,9 C 0,3 C
01.12.2012 14:41 2,5 C 89 % 1012,0 hPa 0,0 l/m 9,4 km/h (2 Bft) W 270 0,9 C -0,2 C
01.12.2012 14:46 2,5 C 89 % 1012,0 hPa 0,0 l/m 5,0 km/h (1 Bft) W-SW 247 0,9 C 1,2 C
01.12.2012 14:51 2,5 C 89 % 1012,0 hPa 0,0 l/m 3,2 km/h (1 Bft) S-SW 202 0,9 C 2,5 C
01.12.2012 14:56 2,5 C 89 % 1012,0 hPa 0,0 l/m 5,0 km/h (1 Bft) SW 225 0,9 C 1,2 C
01.12.2012 15:01 2,5 C 89 % 1012,0 hPa 0,0 l/m 3,6 km/h (1 Bft) SW 225 0,9 C 2,5 C
01.12.2012 15:06 2,6 C 89 % 1011,9 hPa 0,0 l/m 6,1 km/h (2 Bft) W-SW 247 1,0 C 0,9 C
01.12.2012 15:11 2,5 C 89 % 1012,0 hPa 0,0 l/m 9,0 km/h (2 Bft) W-SW 247 0,9 C -0,1 C
01.12.2012 15:16 2,5 C 89 % 1012,0 hPa 0,0 l/m 6,5 km/h (2 Bft) SW 225 0,9 C 0,7 C
01.12.2012 15:21 2,5 C 89 % 1012,0 hPa 0,0 l/m 7,6 km/h (2 Bft) S-SW 202 0,9 C 0,3 C
01.12.2012 15:26 2,5 C 89 % 1012,0 hPa 0,0 l/m 5,8 km/h (2 Bft) W-SW 247 0,9 C 0,9 C
01.12.2012 15:31 2,6 C 89 % 1011,7 hPa 0,0 l/m 10,8 km/h (2 Bft) W-SW 247 1,0 C -0,4 C
01.12.2012 15:36 2,5 C 89 % 1011,8 hPa 0,0 l/m 6,5 km/h (2 Bft) S-SW 202 0,9 C 0,7 C
01.12.2012 15:41 2,5 C 89 % 1011,8 hPa 0,0 l/m 6,5 km/h (2 Bft) SW 225 0,9 C 0,7 C
01.12.2012 15:46 2,6 C 89 % 1011,8 hPa 0,0 l/m 6,5 km/h (2 Bft) W-SW 247 1,0 C 0,8 C
01.12.2012 15:51 2,6 C 89 % 1011,9 hPa 0,0 l/m 3,2 km/h (1 Bft) S 180 1,0 C 2,6 C
01.12.2012 15:56 2,6 C 89 % 1011,8 hPa 0,0 l/m 5,0 km/h (1 Bft) S-SW 202 1,0 C 1,4 C
01.12.2012 16:01 2,6 C 89 % 1012,0 hPa 0,0 l/m 2,9 km/h (1 Bft) SW 225 1,0 C 2,6 C
01.12.2012 16:06 2,6 C 89 % 1011,8 hPa 0,0 l/m 5,4 km/h (1 Bft) S-SW 202 1,0 C 1,2 C
01.12.2012 16:11 2,6 C 89 % 1011,8 hPa 0,0 l/m 4,7 km/h (1 Bft) SW 225 1,0 C 1,5 C
01.12.2012 16:16 2,5 C 89 % 1012,0 hPa 0,0 l/m 10,8 km/h (2 Bft) SW 225 0,9 C -0,5 C
01.12.2012 16:21 2,5 C 89 % 1012,0 hPa 0,0 l/m 3,2 km/h (1 Bft) S-SW 202 0,9 C 2,5 C
01.12.2012 16:26 2,5 C 89 % 1012,0 hPa 0,0 l/m 0,0 km/h (0 Bft) S-SO 157 0,9 C 2,5 C
01.12.2012 16:31 2,5 C 89 % 1012,1 hPa 0,0 l/m 1,8 km/h (1 Bft) W-SW 247 0,9 C 2,5 C
01.12.2012 16:36 2,5 C 89 % 1012,1 hPa 0,0 l/m 0,0 km/h (0 Bft) S 180 0,9 C 2,5 C
01.12.2012 16:41 2,5 C 89 % 1012,0 hPa 0,0 l/m 3,2 km/h (1 Bft) S-SW 202 0,9 C 2,5 C
01.12.2012 16:46 2,5 C 89 % 1011,9 hPa 0,0 l/m 6,5 km/h (2 Bft) S 180 0,9 C 0,7 C
01.12.2012 16:51 2,6 C 90 % 1012,0 hPa 0,0 l/m 4,0 km/h (1 Bft) S-SW 202 1,1 C 2,6 C
01.12.2012 16:56 2,6 C 90 % 1012,0 hPa 0,0 l/m 6,1 km/h (2 Bft) S-SW 202 1,1 C 0,9 C
01.12.2012 17:01 2,6 C 90 % 1012,1 hPa 0,0 l/m 2,9 km/h (1 Bft) W-SW 247 1,1 C 2,6 C
01.12.2012 17:06 2,6 C 90 % 1012,0 hPa 0,0 l/m 2,9 km/h (1 Bft) S-SW 202 1,1 C 2,6 C
01.12.2012 17:11 2,6 C 90 % 1011,9 hPa 0,0 l/m 4,0 km/h (1 Bft) S-SW 202 1,1 C 2,6 C
01.12.2012 17:16 2,6 C 90 % 1012,0 hPa 0,0 l/m 4,0 km/h (1 Bft) S-SW 202 1,1 C 2,6 C
01.12.2012 17:21 2,6 C 90 % 1012,0 hPa 0,0 l/m 5,0 km/h (1 Bft) S-SW 202 1,1 C 1,4 C
01.12.2012 17:26 2,6 C 90 % 1012,0 hPa 0,0 l/m 5,0 km/h (1 Bft) S-SW 202 1,1 C 1,4 C
01.12.2012 17:31 2,6 C 90 % 1012,0 hPa 0,0 l/m 3,2 km/h (1 Bft) SW 225 1,1 C 2,6 C
01.12.2012 17:36 2,6 C 90 % 1012,0 hPa 0,0 l/m 4,3 km/h (1 Bft) S-SO 157 1,1 C 2,6 C
01.12.2012 17:41 2,6 C 90 % 1012,0 hPa 0,0 l/m 0,0 km/h (0 Bft) S 180 1,1 C 2,6 C
01.12.2012 17:46 2,6 C 90 % 1012,0 hPa 0,0 l/m 5,4 km/h (1 Bft) W-SW 247 1,1 C 1,2 C
01.12.2012 17:51 2,6 C 90 % 1011,9 hPa 0,0 l/m 7,9 km/h (2 Bft) S-SW 202 1,1 C 0,3 C
01.12.2012 17:56 2,6 C 90 % 1011,7 hPa 0,0 l/m 3,2 km/h (1 Bft) W-SW 247 1,1 C 2,6 C
01.12.2012 18:01 2,6 C 90 % 1011,7 hPa 0,0 l/m 2,2 km/h (1 Bft) S-SW 202 1,1 C 2,6 C
01.12.2012 18:06 2,6 C 90 % 1011,7 hPa 0,0 l/m 5,0 km/h (1 Bft) W-SW 247 1,1 C 1,4 C
01.12.2012 18:11 2,6 C 89 % 1011,7 hPa 0,0 l/m 0,0 km/h (0 Bft) S 180 1,0 C 2,6 C
01.12.2012 18:16 2,6 C 89 % 1011,9 hPa 0,0 l/m 0,0 km/h (0 Bft) S-SW 202 1,0 C 2,6 C
01.12.2012 18:21 2,6 C 89 % 1011,7 hPa 0,0 l/m 3,2 km/h (1 Bft) S-SO 157 1,0 C 2,6 C
01.12.2012 18:26 2,6 C 89 % 1011,8 hPa 0,0 l/m 2,5 km/h (1 Bft) S-SO 157 1,0 C 2,6 C
01.12.2012 18:31 2,6 C 89 % 1011,8 hPa 0,0 l/m 3,6 km/h (1 Bft) S-SW 202 1,0 C 2,6 C
01.12.2012 18:36 2,5 C 89 % 1011,6 hPa 0,0 l/m 1,8 km/h (1 Bft) S-SW 202 0,9 C 2,5 C
01.12.2012 18:41 2,5 C 89 % 1011,6 hPa 0,0 l/m 3,2 km/h (1 Bft) S-SW 202 0,9 C 2,5 C
01.12.2012 18:46 2,5 C 89 % 1011,6 hPa 0,0 l/m 2,9 km/h (1 Bft) W 270 0,9 C 2,5 C
01.12.2012 18:51 2,5 C 89 % 1011,7 hPa 0,0 l/m 5,8 km/h (2 Bft) S 180 0,9 C 0,9 C
01.12.2012 18:56 2,5 C 90 % 1011,7 hPa 0,0 l/m 5,0 km/h (1 Bft) S 180 1,0 C 1,2 C
01.12.2012 19:01 2,5 C 90 % 1011,7 hPa 0,0 l/m 3,2 km/h (1 Bft) S-SW 202 1,0 C 2,5 C
01.12.2012 19:06 2,5 C 90 % 1011,8 hPa 0,0 l/m 5,0 km/h (1 Bft) S 180 1,0 C 1,2 C
01.12.2012 19:11 2,5 C 90 % 1011,7 hPa 0,0 l/m 13,3 km/h (3 Bft) W-SW 247 1,0 C -1,0 C
01.12.2012 19:16 2,5 C 90 % 1011,7 hPa 0,0 l/m 3,2 km/h (1 Bft) S-SW 202 1,0 C 2,5 C
01.12.2012 19:21 2,5 C 90 % 1011,6 hPa 0,0 l/m 5,8 km/h (2 Bft) S-SW 202 1,0 C 0,9 C
01.12.2012 19:26 2,5 C 89 % 1011,7 hPa 0,0 l/m 6,1 km/h (2 Bft) S-SW 202 0,9 C 0,8 C
01.12.2012 19:31 2,6 C 90 % 1011,6 hPa 0,0 l/m 5,4 km/h (1 Bft) S 180 1,1 C 1,2 C
01.12.2012 19:36 2,5 C 89 % 1011,6 hPa 0,0 l/m 5,4 km/h (1 Bft) S 180 0,9 C 1,1 C
01.12.2012 19:41 2,5 C 89 % 1011,6 hPa 0,0 l/m 4,7 km/h (1 Bft) S-SO 157 0,9 C 1,4 C
01.12.2012 19:46 2,4 C 89 % 1011,5 hPa 0,0 l/m 3,2 km/h (1 Bft) S-SW 202 0,8 C 2,4 C
01.12.2012 19:51 2,4 C 89 % 1011,6 hPa 0,0 l/m 8,6 km/h (2 Bft) W-SW 247 0,8 C -0,1 C
01.12.2012 19:56 2,4 C 89 % 1011,6 hPa 0,0 l/m 7,2 km/h (2 Bft) S 180 0,8 C 0,3 C
01.12.2012 20:01 2,4 C 89 % 1011,6 hPa 0,0 l/m 4,3 km/h (1 Bft) S-SO 157 0,8 C 2,4 C
01.12.2012 20:06 2,4 C 89 % 1011,5 hPa 0,0 l/m 2,5 km/h (1 Bft) S 180 0,8 C 2,4 C
01.12.2012 20:11 2,4 C 90 % 1011,6 hPa 0,0 l/m 4,0 km/h (1 Bft) SW 225 0,9 C 2,4 C
01.12.2012 20:16 2,4 C 90 % 1011,5 hPa 0,0 l/m 5,4 km/h (1 Bft) S-SW 202 0,9 C 1,0 C
01.12.2012 20:21 2,4 C 90 % 1011,4 hPa 0,0 l/m 3,6 km/h (1 Bft) S-SW 202 0,9 C 2,4 C
01.12.2012 20:26 2,4 C 90 % 1011,3 hPa 0,0 l/m 4,7 km/h (1 Bft) S-SO 157 0,9 C 1,3 C
01.12.2012 20:31 2,4 C 90 % 1011,4 hPa 0,0 l/m 4,3 km/h (1 Bft) S-SW 202 0,9 C 2,4 C
01.12.2012 20:36 2,4 C 90 % 1011,3 hPa 0,0 l/m 2,5 km/h (1 Bft) S-SW 202 0,9 C 2,4 C
01.12.2012 20:41 2,4 C 90 % 1011,3 hPa 0,0 l/m 2,2 km/h (1 Bft) S 180 0,9 C 2,4 C
01.12.2012 20:46 2,4 C 90 % 1011,3 hPa 0,0 l/m 9,4 km/h (2 Bft) S-SW 202 0,9 C -0,3 C
01.12.2012 20:51 2,3 C 90 % 1011,2 hPa 0,0 l/m 0,0 km/h (0 Bft) S-SW 202 0,8 C 2,3 C
01.12.2012 20:56 2,3 C 90 % 1011,3 hPa 0,5 l/m 4,7 km/h (1 Bft) S-SW 202 0,8 C 1,2 C
01.12.2012 21:01 2,2 C 90 % 1011,2 hPa 0,0 l/m 5,0 km/h (1 Bft) S-SW 202 0,7 C 0,9 C
01.12.2012 21:06 2,2 C 90 % 1011,3 hPa 0,0 l/m 5,4 km/h (1 Bft) S-SW 202 0,7 C 0,7 C
01.12.2012 21:11 2,1 C 90 % 1011,3 hPa 0,0 l/m 9,7 km/h (2 Bft) S 180 0,6 C -0,7 C
01.12.2012 21:16 2,1 C 90 % 1011,3 hPa 0,0 l/m 4,0 km/h (1 Bft) S-SO 157 0,6 C 2,1 C
01.12.2012 21:21 2,0 C 90 % 1011,3 hPa 0,0 l/m 10,8 km/h (2 Bft) SW 225 0,5 C -1,1 C
01.12.2012 21:26 1,9 C 90 % 1011,3 hPa 0,0 l/m 12,6 km/h (3 Bft) S-SW 202 0,4 C -1,6 C
01.12.2012 21:31 1,9 C 90 % 1011,2 hPa 0,0 l/m 11,5 km/h (2 Bft) S-SW 202 0,4 C -1,4 C
01.12.2012 21:36 1,9 C 90 % 1011,0 hPa 0,0 l/m 8,3 km/h (2 Bft) S-SW 202 0,4 C -0,6 C
01.12.2012 21:41 2,0 C 90 % 1011,0 hPa 0,0 l/m 5,4 km/h (1 Bft) S-SW 202 0,5 C 0,5 C
01.12.2012 21:46 2,1 C 90 % 1011,1 hPa 0,0 l/m 7,2 km/h (2 Bft) SW 225 0,6 C -0,0 C
01.12.2012 21:51 2,1 C 90 % 1011,0 hPa 0,0 l/m 8,3 km/h (2 Bft) S-SW 202 0,6 C -0,4 C
01.12.2012 21:56 2,1 C 90 % 1011,0 hPa 0,0 l/m 6,1 km/h (2 Bft) S 180 0,6 C 0,4 C
01.12.2012 22:01 2,1 C 90 % 1011,0 hPa 0,0 l/m 9,0 km/h (2 Bft) SW 225 0,6 C -0,6 C
01.12.2012 22:06 2,1 C 90 % 1011,0 hPa 0,0 l/m 4,3 km/h (1 Bft) S 180 0,6 C 2,1 C
01.12.2012 22:11 2,1 C 90 % 1011,0 hPa 0,0 l/m 8,3 km/h (2 Bft) S-SO 157 0,6 C -0,4 C
01.12.2012 22:16 2,1 C 90 % 1011,0 hPa 0,0 l/m 7,6 km/h (2 Bft) S 180 0,6 C -0,2 C
01.12.2012 22:21 2,1 C 90 % 1010,9 hPa 0,0 l/m 3,6 km/h (1 Bft) S-SO 157 0,6 C 2,1 C
01.12.2012 22:26 2,0 C 90 % 1010,9 hPa 0,0 l/m 4,7 km/h (1 Bft) S-SW 202 0,5 C 0,8 C
01.12.2012 22:31 1,9 C 90 % 1010,6 hPa 0,0 l/m 5,8 km/h (2 Bft) SO 135 0,4 C 0,2 C
01.12.2012 22:36 1,9 C 90 % 1010,6 hPa 0,0 l/m 9,4 km/h (2 Bft) SW 225 0,4 C -0,9 C
01.12.2012 22:41 1,9 C 90 % 1010,7 hPa 0,0 l/m 4,7 km/h (1 Bft) S-SW 202 0,4 C 0,7 C
01.12.2012 22:46 1,9 C 90 % 1010,7 hPa 0,0 l/m 4,3 km/h (1 Bft) S-SW 202 0,4 C 1,9 C
01.12.2012 22:51 1,9 C 90 % 1010,8 hPa 0,0 l/m 7,2 km/h (2 Bft) W-SW 247 0,4 C -0,3 C
01.12.2012 22:56 1,9 C 90 % 1010,7 hPa 0,0 l/m 8,3 km/h (2 Bft) SW 225 0,4 C -0,6 C
01.12.2012 23:01 1,9 C 90 % 1010,7 hPa 0,0 l/m 2,5 km/h (1 Bft) S 180 0,4 C 1,9 C
01.12.2012 23:06 1,9 C 90 % 1010,8 hPa 0,0 l/m 6,5 km/h (2 Bft) S 180 0,4 C -0,0 C
01.12.2012 23:11 1,9 C 90 % 1010,8 hPa 0,0 l/m 7,6 km/h (2 Bft) SW 225 0,4 C -0,4 C
01.12.2012 23:16 1,9 C 90 % 1010,8 hPa 0,0 l/m 6,8 km/h (2 Bft) SW 225 0,4 C -0,1 C
01.12.2012 23:21 1,8 C 90 % 1010,9 hPa 0,0 l/m 2,5 km/h (1 Bft) S-SO 157 0,3 C 1,8 C
01.12.2012 23:26 1,8 C 90 % 1010,9 hPa 0,0 l/m 5,0 km/h (1 Bft) S-SW 202 0,3 C 0,5 C
01.12.2012 23:31 1,8 C 90 % 1010,8 hPa 0,0 l/m 4,7 km/h (1 Bft) S-SO 157 0,3 C 0,6 C
01.12.2012 23:36 1,8 C 90 % 1010,8 hPa 0,0 l/m 2,2 km/h (1 Bft) S 180 0,3 C 1,8 C
01.12.2012 23:41 1,8 C 90 % 1010,7 hPa 0,0 l/m 7,2 km/h (2 Bft) S-SW 202 0,3 C -0,4 C
01.12.2012 23:46 1,7 C 90 % 1010,8 hPa 0,0 l/m 9,4 km/h (2 Bft) S-SW 202 0,2 C -1,1 C
01.12.2012 23:51 1,6 C 90 % 1010,7 hPa 0,0 l/m 3,2 km/h (1 Bft) S-SW 202 0,1 C 1,6 C
01.12.2012 23:56 1,6 C 90 % 1010,7 hPa 0,0 l/m 6,1 km/h (2 Bft) S-SW 202 0,1 C -0,2 C
_ Min-Zeit 00:01 11:16 22:31 - 00:21 - - 00:01 03:01
Minimum _ -1,4 C 88 % 1010,6 hPa - 0,0 km/h (0 Bft) - - -3,0 C -2,9 C
_ Max-Zeit 15:06 06:46 11:21 11:31 19:11 - - 16:51 15:51
Maximum _ 2,6 C 92 % 1012,2 hPa 0,5 l/m 13,3 km/h
W-SW (3 Bft)
- - 1,1 C 2,6 C
Durchschnitt _ 1,2 C 90 % 1011,6 hPa #1,0 l/m 4,4 km/h (1 Bft) S-SW - -0,3 C 0,4 C
(c) by David Heller